sensor_id;sensor_type;location;lat;lon;timestamp;P1;durP1;ratioP1;P2;durP2;ratioP2
22270;SDS011;11304;53.520;10.104;2023-09-08T00:01:23;5.47;;;4.53;;
22270;SDS011;11304;53.520;10.104;2023-09-08T00:03:49;5.53;;;4.75;;
22270;SDS011;11304;53.520;10.104;2023-09-08T00:06:15;5.82;;;4.70;;
22270;SDS011;11304;53.520;10.104;2023-09-08T00:08:41;8.23;;;4.70;;
22270;SDS011;11304;53.520;10.104;2023-09-08T00:11:08;6.00;;;4.78;;
22270;SDS011;11304;53.520;10.104;2023-09-08T00:13:34;5.32;;;4.53;;
22270;SDS011;11304;53.520;10.104;2023-09-08T00:16:00;6.75;;;4.60;;
22270;SDS011;11304;53.520;10.104;2023-09-08T00:18:26;4.65;;;4.15;;
22270;SDS011;11304;53.520;10.104;2023-09-08T00:20:52;8.55;;;5.53;;
22270;SDS011;11304;53.520;10.104;2023-09-08T00:23:18;8.52;;;5.43;;
22270;SDS011;11304;53.520;10.104;2023-09-08T00:25:44;6.10;;;5.40;;
22270;SDS011;11304;53.520;10.104;2023-09-08T00:28:10;7.75;;;5.55;;
22270;SDS011;11304;53.520;10.104;2023-09-08T00:30:36;7.50;;;5.20;;
22270;SDS011;11304;53.520;10.104;2023-09-08T00:33:03;6.68;;;5.03;;
22270;SDS011;11304;53.520;10.104;2023-09-08T00:35:29;4.78;;;4.38;;
22270;SDS011;11304;53.520;10.104;2023-09-08T00:37:55;5.72;;;4.75;;
22270;SDS011;11304;53.520;10.104;2023-09-08T00:40:21;5.80;;;4.90;;
22270;SDS011;11304;53.520;10.104;2023-09-08T00:42:47;6.53;;;5.03;;
22270;SDS011;11304;53.520;10.104;2023-09-08T00:45:13;5.20;;;4.63;;
22270;SDS011;11304;53.520;10.104;2023-09-08T00:47:39;7.97;;;5.05;;
22270;SDS011;11304;53.520;10.104;2023-09-08T00:50:05;8.35;;;5.30;;
22270;SDS011;11304;53.520;10.104;2023-09-08T00:52:32;8.95;;;4.82;;
22270;SDS011;11304;53.520;10.104;2023-09-08T00:54:59;6.78;;;4.97;;
22270;SDS011;11304;53.520;10.104;2023-09-08T00:57:25;5.80;;;4.82;;
22270;SDS011;11304;53.520;10.104;2023-09-08T00:59:51;8.45;;;5.30;;
22270;SDS011;11304;53.520;10.104;2023-09-08T01:02:18;6.43;;;5.07;;
22270;SDS011;11304;53.520;10.104;2023-09-08T01:04:44;6.57;;;4.72;;
22270;SDS011;11304;53.520;10.104;2023-09-08T01:07:10;6.45;;;5.13;;
22270;SDS011;11304;53.520;10.104;2023-09-08T01:09:36;7.95;;;4.78;;
22270;SDS011;11304;53.520;10.104;2023-09-08T01:12:03;7.10;;;5.30;;
22270;SDS011;11304;53.520;10.104;2023-09-08T01:14:31;5.20;;;4.70;;
22270;SDS011;11304;53.520;10.104;2023-09-08T01:16:57;6.53;;;4.78;;
22270;SDS011;11304;53.520;10.104;2023-09-08T01:19:23;5.63;;;4.40;;
22270;SDS011;11304;53.520;10.104;2023-09-08T01:26:53;5.45;;;4.95;;
22270;SDS011;11304;53.520;10.104;2023-09-08T01:29:19;6.43;;;5.18;;
22270;SDS011;11304;53.520;10.104;2023-09-08T01:31:49;8.07;;;5.80;;
22270;SDS011;11304;53.520;10.104;2023-09-08T01:34:15;7.40;;;5.35;;
22270;SDS011;11304;53.520;10.104;2023-09-08T01:36:42;18.65;;;6.03;;
22270;SDS011;11304;53.520;10.104;2023-09-08T01:39:08;9.45;;;6.03;;
22270;SDS011;11304;53.520;10.104;2023-09-08T01:41:34;7.82;;;6.20;;
22270;SDS011;11304;53.520;10.104;2023-09-08T01:44:00;10.07;;;5.57;;
22270;SDS011;11304;53.520;10.104;2023-09-08T01:46:30;6.97;;;5.40;;
22270;SDS011;11304;53.520;10.104;2023-09-08T01:48:56;7.35;;;5.53;;
22270;SDS011;11304;53.520;10.104;2023-09-08T01:51:22;6.70;;;5.65;;
22270;SDS011;11304;53.520;10.104;2023-09-08T01:53:48;6.80;;;5.30;;
22270;SDS011;11304;53.520;10.104;2023-09-08T01:56:14;6.70;;;5.65;;
22270;SDS011;11304;53.520;10.104;2023-09-08T01:58:40;6.32;;;5.13;;
22270;SDS011;11304;53.520;10.104;2023-09-08T02:01:06;7.25;;;5.40;;
22270;SDS011;11304;53.520;10.104;2023-09-08T02:03:32;7.45;;;6.20;;
22270;SDS011;11304;53.520;10.104;2023-09-08T02:05:58;9.23;;;8.30;;
22270;SDS011;11304;53.520;10.104;2023-09-08T02:08:24;9.95;;;8.65;;
22270;SDS011;11304;53.520;10.104;2023-09-08T02:10:50;12.95;;;8.35;;
22270;SDS011;11304;53.520;10.104;2023-09-08T02:13:16;7.95;;;6.95;;
22270;SDS011;11304;53.520;10.104;2023-09-08T02:15:42;10.95;;;7.60;;
22270;SDS011;11304;53.520;10.104;2023-09-08T02:18:09;7.30;;;6.60;;
22270;SDS011;11304;53.520;10.104;2023-09-08T02:20:35;9.52;;;7.07;;
22270;SDS011;11304;53.520;10.104;2023-09-08T02:23:05;8.15;;;7.05;;
22270;SDS011;11304;53.520;10.104;2023-09-08T02:25:32;8.63;;;7.80;;
22270;SDS011;11304;53.520;10.104;2023-09-08T02:27:58;8.00;;;6.72;;
22270;SDS011;11304;53.520;10.104;2023-09-08T02:30:24;11.18;;;7.10;;
22270;SDS011;11304;53.520;10.104;2023-09-08T02:32:50;11.73;;;7.65;;
22270;SDS011;11304;53.520;10.104;2023-09-08T02:35:16;10.32;;;6.78;;
22270;SDS011;11304;53.520;10.104;2023-09-08T02:37:42;8.18;;;6.88;;
22270;SDS011;11304;53.520;10.104;2023-09-08T02:40:09;9.50;;;7.22;;
22270;SDS011;11304;53.520;10.104;2023-09-08T02:42:35;8.85;;;7.10;;
22270;SDS011;11304;53.520;10.104;2023-09-08T02:45:01;9.38;;;7.03;;
22270;SDS011;11304;53.520;10.104;2023-09-08T02:47:27;9.70;;;6.95;;
22270;SDS011;11304;53.520;10.104;2023-09-08T02:49:53;7.97;;;6.55;;
22270;SDS011;11304;53.520;10.104;2023-09-08T02:52:19;7.90;;;6.75;;
22270;SDS011;11304;53.520;10.104;2023-09-08T02:54:46;7.43;;;6.63;;
22270;SDS011;11304;53.520;10.104;2023-09-08T02:57:12;8.05;;;7.25;;
22270;SDS011;11304;53.520;10.104;2023-09-08T02:59:38;9.07;;;7.05;;
22270;SDS011;11304;53.520;10.104;2023-09-08T03:02:04;9.30;;;7.35;;
22270;SDS011;11304;53.520;10.104;2023-09-08T03:04:30;10.90;;;7.32;;
22270;SDS011;11304;53.520;10.104;2023-09-08T03:06:56;7.88;;;6.55;;
22270;SDS011;11304;53.520;10.104;2023-09-08T03:09:22;6.63;;;5.95;;
22270;SDS011;11304;53.520;10.104;2023-09-08T03:11:48;7.80;;;6.70;;
22270;SDS011;11304;53.520;10.104;2023-09-08T03:14:14;7.72;;;5.95;;
22270;SDS011;11304;53.520;10.104;2023-09-08T03:16:40;9.57;;;7.38;;
22270;SDS011;11304;53.520;10.104;2023-09-08T03:19:06;8.30;;;7.10;;
22270;SDS011;11304;53.520;10.104;2023-09-08T03:21:32;7.28;;;6.50;;
22270;SDS011;11304;53.520;10.104;2023-09-08T03:23:58;6.18;;;5.47;;
22270;SDS011;11304;53.520;10.104;2023-09-08T03:26:25;6.53;;;5.78;;
22270;SDS011;11304;53.520;10.104;2023-09-08T03:28:51;7.60;;;5.68;;
22270;SDS011;11304;53.520;10.104;2023-09-08T03:31:17;8.57;;;7.55;;
22270;SDS011;11304;53.520;10.104;2023-09-08T03:33:43;9.68;;;7.22;;
22270;SDS011;11304;53.520;10.104;2023-09-08T03:36:09;7.47;;;6.78;;
22270;SDS011;11304;53.520;10.104;2023-09-08T03:38:35;7.30;;;6.50;;
22270;SDS011;11304;53.520;10.104;2023-09-08T03:41:02;6.82;;;6.13;;
22270;SDS011;11304;53.520;10.104;2023-09-08T03:43:28;6.57;;;5.80;;
22270;SDS011;11304;53.520;10.104;2023-09-08T03:45:55;7.53;;;5.22;;
22270;SDS011;11304;53.520;10.104;2023-09-08T03:48:22;5.90;;;4.47;;
22270;SDS011;11304;53.520;10.104;2023-09-08T03:50:48;4.90;;;3.97;;
22270;SDS011;11304;53.520;10.104;2023-09-08T03:53:14;5.72;;;5.13;;
22270;SDS011;11304;53.520;10.104;2023-09-08T03:55:40;5.78;;;5.00;;
22270;SDS011;11304;53.520;10.104;2023-09-08T03:58:06;9.50;;;5.05;;
22270;SDS011;11304;53.520;10.104;2023-09-08T04:00:32;7.70;;;5.13;;
22270;SDS011;11304;53.520;10.104;2023-09-08T04:02:58;6.53;;;5.43;;
22270;SDS011;11304;53.520;10.104;2023-09-08T04:05:24;7.40;;;5.30;;
22270;SDS011;11304;53.520;10.104;2023-09-08T04:07:50;10.50;;;6.03;;
22270;SDS011;11304;53.520;10.104;2023-09-08T04:10:16;8.05;;;6.50;;
22270;SDS011;11304;53.520;10.104;2023-09-08T04:12:42;7.35;;;6.60;;
22270;SDS011;11304;53.520;10.104;2023-09-08T04:15:09;11.70;;;6.60;;
22270;SDS011;11304;53.520;10.104;2023-09-08T04:17:36;9.48;;;6.50;;
22270;SDS011;11304;53.520;10.104;2023-09-08T04:20:05;8.35;;;5.90;;
22270;SDS011;11304;53.520;10.104;2023-09-08T04:22:31;6.78;;;5.68;;
22270;SDS011;11304;53.520;10.104;2023-09-08T04:24:58;9.25;;;6.15;;
22270;SDS011;11304;53.520;10.104;2023-09-08T04:27:24;10.43;;;6.75;;
22270;SDS011;11304;53.520;10.104;2023-09-08T04:29:50;11.07;;;6.10;;
22270;SDS011;11304;53.520;10.104;2023-09-08T04:32:16;10.27;;;6.38;;
22270;SDS011;11304;53.520;10.104;2023-09-08T04:34:43;12.60;;;7.00;;
22270;SDS011;11304;53.520;10.104;2023-09-08T04:37:10;15.00;;;7.43;;
22270;SDS011;11304;53.520;10.104;2023-09-08T04:39:36;14.95;;;7.38;;
22270;SDS011;11304;53.520;10.104;2023-09-08T04:42:02;11.05;;;7.43;;
22270;SDS011;11304;53.520;10.104;2023-09-08T04:44:28;13.65;;;8.18;;
22270;SDS011;11304;53.520;10.104;2023-09-08T04:46:54;15.77;;;7.60;;
22270;SDS011;11304;53.520;10.104;2023-09-08T04:49:20;12.68;;;7.03;;
22270;SDS011;11304;53.520;10.104;2023-09-08T04:51:46;11.45;;;6.85;;
22270;SDS011;11304;53.520;10.104;2023-09-08T04:54:12;10.55;;;6.72;;
22270;SDS011;11304;53.520;10.104;2023-09-08T04:56:39;16.77;;;9.68;;
22270;SDS011;11304;53.520;10.104;2023-09-08T04:59:05;13.40;;;10.38;;
22270;SDS011;11304;53.520;10.104;2023-09-08T05:01:31;13.85;;;9.40;;
22270;SDS011;11304;53.520;10.104;2023-09-08T05:04:01;13.95;;;9.40;;
22270;SDS011;11304;53.520;10.104;2023-09-08T05:06:27;11.23;;;8.13;;
22270;SDS011;11304;53.520;10.104;2023-09-08T05:08:53;19.55;;;7.68;;
22270;SDS011;11304;53.520;10.104;2023-09-08T05:11:19;10.52;;;7.35;;
22270;SDS011;11304;53.520;10.104;2023-09-08T05:13:48;9.57;;;7.95;;
22270;SDS011;11304;53.520;10.104;2023-09-08T05:16:14;11.55;;;8.88;;
22270;SDS011;11304;53.520;10.104;2023-09-08T05:18:43;11.93;;;8.93;;
22270;SDS011;11304;53.520;10.104;2023-09-08T05:21:09;10.18;;;8.52;;
22270;SDS011;11304;53.520;10.104;2023-09-08T05:23:35;13.10;;;9.77;;
22270;SDS011;11304;53.520;10.104;2023-09-08T05:26:01;29.63;;;9.68;;
22270;SDS011;11304;53.520;10.104;2023-09-08T05:28:27;23.02;;;9.43;;
22270;SDS011;11304;53.520;10.104;2023-09-08T05:30:54;19.92;;;8.93;;
22270;SDS011;11304;53.520;10.104;2023-09-08T05:33:20;11.52;;;8.82;;
22270;SDS011;11304;53.520;10.104;2023-09-08T05:35:46;12.05;;;8.68;;
22270;SDS011;11304;53.520;10.104;2023-09-08T05:38:12;11.93;;;7.80;;
22270;SDS011;11304;53.520;10.104;2023-09-08T05:40:38;9.63;;;7.60;;
22270;SDS011;11304;53.520;10.104;2023-09-08T05:43:04;9.65;;;7.65;;
22270;SDS011;11304;53.520;10.104;2023-09-08T05:45:33;9.98;;;7.72;;
22270;SDS011;11304;53.520;10.104;2023-09-08T05:48:00;9.68;;;7.40;;
22270;SDS011;11304;53.520;10.104;2023-09-08T05:50:26;9.82;;;7.57;;
22270;SDS011;11304;53.520;10.104;2023-09-08T05:52:52;9.52;;;6.82;;
22270;SDS011;11304;53.520;10.104;2023-09-08T05:55:18;10.70;;;6.82;;
22270;SDS011;11304;53.520;10.104;2023-09-08T05:57:44;10.68;;;7.47;;
22270;SDS011;11304;53.520;10.104;2023-09-08T06:00:10;8.38;;;7.22;;
22270;SDS011;11304;53.520;10.104;2023-09-08T06:02:37;12.43;;;7.10;;
22270;SDS011;11304;53.520;10.104;2023-09-08T06:05:03;11.30;;;7.50;;
22270;SDS011;11304;53.520;10.104;2023-09-08T06:07:30;9.55;;;7.03;;
22270;SDS011;11304;53.520;10.104;2023-09-08T06:09:56;10.55;;;7.13;;
22270;SDS011;11304;53.520;10.104;2023-09-08T06:12:22;10.10;;;7.60;;
22270;SDS011;11304;53.520;10.104;2023-09-08T06:14:48;10.00;;;7.75;;
22270;SDS011;11304;53.520;10.104;2023-09-08T06:17:14;10.55;;;7.40;;
22270;SDS011;11304;53.520;10.104;2023-09-08T06:19:40;11.32;;;7.70;;
22270;SDS011;11304;53.520;10.104;2023-09-08T06:22:06;10.70;;;7.55;;
22270;SDS011;11304;53.520;10.104;2023-09-08T06:24:32;12.48;;;8.07;;
22270;SDS011;11304;53.520;10.104;2023-09-08T06:26:58;10.82;;;7.97;;
22270;SDS011;11304;53.520;10.104;2023-09-08T06:29:24;11.35;;;8.05;;
22270;SDS011;11304;53.520;10.104;2023-09-08T06:31:50;13.25;;;8.35;;
22270;SDS011;11304;53.520;10.104;2023-09-08T06:34:16;12.55;;;8.30;;
22270;SDS011;11304;53.520;10.104;2023-09-08T06:36:46;12.60;;;8.95;;
22270;SDS011;11304;53.520;10.104;2023-09-08T06:39:12;9.30;;;7.68;;
22270;SDS011;11304;53.520;10.104;2023-09-08T06:41:38;11.80;;;7.75;;
22270;SDS011;11304;53.520;10.104;2023-09-08T06:44:04;12.88;;;8.95;;
22270;SDS011;11304;53.520;10.104;2023-09-08T06:46:31;11.18;;;8.23;;
22270;SDS011;11304;53.520;10.104;2023-09-08T06:48:57;12.60;;;8.68;;
22270;SDS011;11304;53.520;10.104;2023-09-08T06:51:23;12.43;;;8.10;;
22270;SDS011;11304;53.520;10.104;2023-09-08T06:53:55;11.63;;;7.68;;
22270;SDS011;11304;53.520;10.104;2023-09-08T06:56:21;14.75;;;8.32;;
22270;SDS011;11304;53.520;10.104;2023-09-08T06:58:47;10.43;;;7.75;;
22270;SDS011;11304;53.520;10.104;2023-09-08T07:01:14;12.20;;;8.05;;
22270;SDS011;11304;53.520;10.104;2023-09-08T07:03:40;11.15;;;7.88;;
22270;SDS011;11304;53.520;10.104;2023-09-08T07:06:06;22.55;;;9.02;;
22270;SDS011;11304;53.520;10.104;2023-09-08T07:08:32;25.38;;;8.18;;
22270;SDS011;11304;53.520;10.104;2023-09-08T07:10:58;21.48;;;8.00;;
22270;SDS011;11304;53.520;10.104;2023-09-08T07:13:24;14.82;;;7.05;;
22270;SDS011;11304;53.520;10.104;2023-09-08T07:15:50;11.88;;;8.05;;
22270;SDS011;11304;53.520;10.104;2023-09-08T07:18:16;14.55;;;8.23;;
22270;SDS011;11304;53.520;10.104;2023-09-08T07:20:46;11.32;;;7.40;;
22270;SDS011;11304;53.520;10.104;2023-09-08T07:23:13;15.13;;;8.20;;
22270;SDS011;11304;53.520;10.104;2023-09-08T07:25:39;14.70;;;7.93;;
22270;SDS011;11304;53.520;10.104;2023-09-08T07:28:05;9.75;;;6.75;;
22270;SDS011;11304;53.520;10.104;2023-09-08T07:30:31;9.75;;;7.65;;
22270;SDS011;11304;53.520;10.104;2023-09-08T07:32:58;9.52;;;8.15;;
22270;SDS011;11304;53.520;10.104;2023-09-08T07:35:24;14.88;;;7.78;;
22270;SDS011;11304;53.520;10.104;2023-09-08T07:37:50;11.23;;;8.13;;
22270;SDS011;11304;53.520;10.104;2023-09-08T07:40:16;13.48;;;8.10;;
22270;SDS011;11304;53.520;10.104;2023-09-08T07:42:42;14.25;;;8.18;;
22270;SDS011;11304;53.520;10.104;2023-09-08T07:45:09;10.82;;;7.82;;
22270;SDS011;11304;53.520;10.104;2023-09-08T07:47:35;12.25;;;7.45;;
22270;SDS011;11304;53.520;10.104;2023-09-08T07:50:16;15.25;;;7.53;;
22270;SDS011;11304;53.520;10.104;2023-09-08T07:52:42;12.07;;;7.78;;
22270;SDS011;11304;53.520;10.104;2023-09-08T07:55:08;11.27;;;7.75;;
22270;SDS011;11304;53.520;10.104;2023-09-08T07:57:34;11.23;;;7.80;;
22270;SDS011;11304;53.520;10.104;2023-09-08T08:00:01;17.60;;;8.20;;
22270;SDS011;11304;53.520;10.104;2023-09-08T08:02:27;15.63;;;8.27;;
22270;SDS011;11304;53.520;10.104;2023-09-08T08:04:53;11.13;;;7.18;;
22270;SDS011;11304;53.520;10.104;2023-09-08T08:07:19;11.75;;;7.40;;
22270;SDS011;11304;53.520;10.104;2023-09-08T08:09:45;8.50;;;7.40;;
22270;SDS011;11304;53.520;10.104;2023-09-08T08:12:11;14.40;;;7.25;;
22270;SDS011;11304;53.520;10.104;2023-09-08T08:14:38;11.48;;;7.70;;
22270;SDS011;11304;53.520;10.104;2023-09-08T08:17:04;13.13;;;7.07;;
22270;SDS011;11304;53.520;10.104;2023-09-08T08:19:30;9.93;;;7.07;;
22270;SDS011;11304;53.520;10.104;2023-09-08T08:21:57;9.27;;;6.88;;
22270;SDS011;11304;53.520;10.104;2023-09-08T08:24:23;11.95;;;7.32;;
22270;SDS011;11304;53.520;10.104;2023-09-08T08:26:49;10.20;;;6.70;;
22270;SDS011;11304;53.520;10.104;2023-09-08T08:29:17;10.88;;;7.03;;
22270;SDS011;11304;53.520;10.104;2023-09-08T08:31:43;9.95;;;6.75;;
22270;SDS011;11304;53.520;10.104;2023-09-08T08:34:09;12.32;;;7.15;;
22270;SDS011;11304;53.520;10.104;2023-09-08T08:36:35;18.10;;;7.72;;
22270;SDS011;11304;53.520;10.104;2023-09-08T08:39:01;10.23;;;7.07;;
22270;SDS011;11304;53.520;10.104;2023-09-08T08:41:28;10.00;;;7.22;;
22270;SDS011;11304;53.520;10.104;2023-09-08T08:43:54;13.57;;;7.30;;
22270;SDS011;11304;53.520;10.104;2023-09-08T08:46:21;10.07;;;6.90;;
22270;SDS011;11304;53.520;10.104;2023-09-08T08:48:48;10.60;;;6.75;;
22270;SDS011;11304;53.520;10.104;2023-09-08T08:51:17;21.55;;;6.97;;
22270;SDS011;11304;53.520;10.104;2023-09-08T08:53:43;8.15;;;6.15;;
22270;SDS011;11304;53.520;10.104;2023-09-08T08:56:10;10.88;;;7.55;;
22270;SDS011;11304;53.520;10.104;2023-09-08T08:58:37;8.95;;;5.88;;
22270;SDS011;11304;53.520;10.104;2023-09-08T09:01:03;10.13;;;7.13;;
22270;SDS011;11304;53.520;10.104;2023-09-08T09:03:29;9.95;;;6.75;;
22270;SDS011;11304;53.520;10.104;2023-09-08T09:05:57;10.18;;;6.32;;
22270;SDS011;11304;53.520;10.104;2023-09-08T09:08:24;11.55;;;6.70;;
22270;SDS011;11304;53.520;10.104;2023-09-08T09:10:51;11.23;;;6.03;;
22270;SDS011;11304;53.520;10.104;2023-09-08T09:13:17;9.43;;;6.85;;
22270;SDS011;11304;53.520;10.104;2023-09-08T09:15:43;7.07;;;6.30;;
22270;SDS011;11304;53.520;10.104;2023-09-08T09:18:11;10.40;;;6.50;;
22270;SDS011;11304;53.520;10.104;2023-09-08T09:20:37;8.05;;;6.65;;
22270;SDS011;11304;53.520;10.104;2023-09-08T09:23:05;13.63;;;7.47;;
22270;SDS011;11304;53.520;10.104;2023-09-08T09:25:31;9.65;;;6.82;;
22270;SDS011;11304;53.520;10.104;2023-09-08T09:28:00;11.70;;;6.90;;
22270;SDS011;11304;53.520;10.104;2023-09-08T09:30:27;10.10;;;6.88;;
22270;SDS011;11304;53.520;10.104;2023-09-08T09:33:01;11.57;;;6.70;;
22270;SDS011;11304;53.520;10.104;2023-09-08T09:38:09;8.95;;;6.43;;
22270;SDS011;11304;53.520;10.104;2023-09-08T09:40:35;8.25;;;6.70;;
22270;SDS011;11304;53.520;10.104;2023-09-08T09:43:01;8.60;;;6.45;;
22270;SDS011;11304;53.520;10.104;2023-09-08T09:45:29;6.85;;;5.90;;
22270;SDS011;11304;53.520;10.104;2023-09-08T09:47:55;10.35;;;6.85;;
22270;SDS011;11304;53.520;10.104;2023-09-08T09:53:00;8.23;;;6.30;;
22270;SDS011;11304;53.520;10.104;2023-09-08T09:55:28;10.57;;;6.10;;
22270;SDS011;11304;53.520;10.104;2023-09-08T09:57:55;10.05;;;6.90;;
22270;SDS011;11304;53.520;10.104;2023-09-08T10:00:23;18.23;;;7.15;;
22270;SDS011;11304;53.520;10.104;2023-09-08T10:02:49;13.18;;;6.40;;
22270;SDS011;11304;53.520;10.104;2023-09-08T10:05:16;8.57;;;6.55;;
22270;SDS011;11304;53.520;10.104;2023-09-08T10:07:42;9.68;;;6.45;;
22270;SDS011;11304;53.520;10.104;2023-09-08T10:10:09;10.60;;;6.63;;
22270;SDS011;11304;53.520;10.104;2023-09-08T10:12:35;9.68;;;6.15;;
22270;SDS011;11304;53.520;10.104;2023-09-08T10:15:02;7.82;;;6.28;;
22270;SDS011;11304;53.520;10.104;2023-09-08T10:19:57;12.52;;;6.50;;
22270;SDS011;11304;53.520;10.104;2023-09-08T10:22:26;14.15;;;7.35;;
22270;SDS011;11304;53.520;10.104;2023-09-08T10:24:56;12.30;;;6.30;;
22270;SDS011;11304;53.520;10.104;2023-09-08T10:27:23;13.98;;;7.45;;
22270;SDS011;11304;53.520;10.104;2023-09-08T10:29:49;10.48;;;6.57;;
22270;SDS011;11304;53.520;10.104;2023-09-08T10:32:16;13.50;;;6.80;;
22270;SDS011;11304;53.520;10.104;2023-09-08T10:34:43;10.30;;;6.18;;
22270;SDS011;11304;53.520;10.104;2023-09-08T10:37:23;11.95;;;6.68;;
22270;SDS011;11304;53.520;10.104;2023-09-08T10:39:50;11.95;;;6.47;;
22270;SDS011;11304;53.520;10.104;2023-09-08T10:48:17;10.68;;;6.55;;
22270;SDS011;11304;53.520;10.104;2023-09-08T10:50:16;15.18;;;6.47;;
22270;SDS011;11304;53.520;10.104;2023-09-08T10:52:43;10.20;;;5.90;;
22270;SDS011;11304;53.520;10.104;2023-09-08T10:55:09;10.57;;;6.10;;
22270;SDS011;11304;53.520;10.104;2023-09-08T10:57:36;11.90;;;6.22;;
22270;SDS011;11304;53.520;10.104;2023-09-08T11:00:03;9.63;;;6.57;;
22270;SDS011;11304;53.520;10.104;2023-09-08T11:02:47;11.52;;;6.15;;
22270;SDS011;11304;53.520;10.104;2023-09-08T11:05:15;7.53;;;6.05;;
22270;SDS011;11304;53.520;10.104;2023-09-08T11:07:42;7.32;;;5.82;;
22270;SDS011;11304;53.520;10.104;2023-09-08T11:10:08;7.38;;;5.88;;
22270;SDS011;11304;53.520;10.104;2023-09-08T11:12:35;13.45;;;5.85;;
22270;SDS011;11304;53.520;10.104;2023-09-08T11:15:05;7.60;;;5.55;;
22270;SDS011;11304;53.520;10.104;2023-09-08T11:17:32;11.57;;;5.80;;
22270;SDS011;11304;53.520;10.104;2023-09-08T11:19:59;11.82;;;5.53;;
22270;SDS011;11304;53.520;10.104;2023-09-08T11:22:25;8.63;;;5.53;;
22270;SDS011;11304;53.520;10.104;2023-09-08T11:25:01;9.13;;;5.72;;
22270;SDS011;11304;53.520;10.104;2023-09-08T11:27:31;7.35;;;5.72;;
22270;SDS011;11304;53.520;10.104;2023-09-08T11:29:57;9.40;;;5.72;;
22270;SDS011;11304;53.520;10.104;2023-09-08T11:32:23;7.18;;;5.88;;
22270;SDS011;11304;53.520;10.104;2023-09-08T11:34:50;11.20;;;6.15;;
22270;SDS011;11304;53.520;10.104;2023-09-08T11:37:16;11.88;;;5.55;;
22270;SDS011;11304;53.520;10.104;2023-09-08T11:39:43;8.95;;;5.50;;
22270;SDS011;11304;53.520;10.104;2023-09-08T11:42:11;10.82;;;5.30;;
22270;SDS011;11304;53.520;10.104;2023-09-08T11:44:37;6.05;;;5.18;;
22270;SDS011;11304;53.520;10.104;2023-09-08T11:47:04;8.50;;;5.90;;
22270;SDS011;11304;53.520;10.104;2023-09-08T11:49:39;6.70;;;5.53;;
22270;SDS011;11304;53.520;10.104;2023-09-08T11:52:06;9.38;;;5.60;;
22270;SDS011;11304;53.520;10.104;2023-09-08T11:54:33;10.00;;;5.88;;
22270;SDS011;11304;53.520;10.104;2023-09-08T11:56:59;11.98;;;5.85;;
22270;SDS011;11304;53.520;10.104;2023-09-08T11:59:30;7.55;;;5.72;;
22270;SDS011;11304;53.520;10.104;2023-09-08T12:01:56;12.65;;;5.10;;
22270;SDS011;11304;53.520;10.104;2023-09-08T12:04:23;9.98;;;5.18;;
22270;SDS011;11304;53.520;10.104;2023-09-08T12:06:49;8.68;;;5.53;;
22270;SDS011;11304;53.520;10.104;2023-09-08T12:09:15;14.85;;;5.85;;
22270;SDS011;11304;53.520;10.104;2023-09-08T12:11:41;8.63;;;5.30;;
22270;SDS011;11304;53.520;10.104;2023-09-08T12:14:08;9.35;;;5.03;;
22270;SDS011;11304;53.520;10.104;2023-09-08T12:16:35;11.57;;;5.68;;
22270;SDS011;11304;53.520;10.104;2023-09-08T12:19:01;5.97;;;5.07;;
22270;SDS011;11304;53.520;10.104;2023-09-08T12:21:27;7.95;;;5.95;;
22270;SDS011;11304;53.520;10.104;2023-09-08T12:23:53;9.43;;;5.60;;
22270;SDS011;11304;53.520;10.104;2023-09-08T12:26:20;9.52;;;7.90;;
22270;SDS011;11304;53.520;10.104;2023-09-08T12:28:46;8.98;;;5.50;;
22270;SDS011;11304;53.520;10.104;2023-09-08T12:31:13;9.57;;;6.03;;
22270;SDS011;11304;53.520;10.104;2023-09-08T12:33:41;10.73;;;5.15;;
22270;SDS011;11304;53.520;10.104;2023-09-08T12:36:15;13.70;;;5.88;;
22270;SDS011;11304;53.520;10.104;2023-09-08T12:38:46;11.60;;;5.47;;
22270;SDS011;11304;53.520;10.104;2023-09-08T12:41:13;8.68;;;5.35;;
22270;SDS011;11304;53.520;10.104;2023-09-08T12:43:39;16.08;;;6.00;;
22270;SDS011;11304;53.520;10.104;2023-09-08T12:46:05;6.05;;;5.40;;
22270;SDS011;11304;53.520;10.104;2023-09-08T12:48:31;10.25;;;5.43;;
22270;SDS011;11304;53.520;10.104;2023-09-08T12:50:57;6.53;;;4.95;;
22270;SDS011;11304;53.520;10.104;2023-09-08T12:53:23;8.82;;;4.82;;
22270;SDS011;11304;53.520;10.104;2023-09-08T12:55:49;9.60;;;4.53;;
22270;SDS011;11304;53.520;10.104;2023-09-08T12:58:16;6.07;;;4.35;;
22270;SDS011;11304;53.520;10.104;2023-09-08T13:00:42;6.57;;;3.67;;
22270;SDS011;11304;53.520;10.104;2023-09-08T13:03:08;11.82;;;4.40;;
22270;SDS011;11304;53.520;10.104;2023-09-08T13:05:35;15.45;;;4.28;;
22270;SDS011;11304;53.520;10.104;2023-09-08T13:08:03;9.80;;;4.18;;
22270;SDS011;11304;53.520;10.104;2023-09-08T13:10:29;6.97;;;4.10;;
22270;SDS011;11304;53.520;10.104;2023-09-08T13:12:55;4.38;;;3.97;;
22270;SDS011;11304;53.520;10.104;2023-09-08T13:15:22;6.28;;;4.15;;
22270;SDS011;11304;53.520;10.104;2023-09-08T13:17:48;9.10;;;3.88;;
22270;SDS011;11304;53.520;10.104;2023-09-08T13:20:15;6.38;;;3.90;;
22270;SDS011;11304;53.520;10.104;2023-09-08T13:22:41;6.38;;;4.20;;
22270;SDS011;11304;53.520;10.104;2023-09-08T13:25:07;4.75;;;4.20;;
22270;SDS011;11304;53.520;10.104;2023-09-08T13:27:33;6.05;;;3.88;;
22270;SDS011;11304;53.520;10.104;2023-09-08T13:30:09;7.18;;;4.25;;
22270;SDS011;11304;53.520;10.104;2023-09-08T13:32:35;8.88;;;4.15;;
22270;SDS011;11304;53.520;10.104;2023-09-08T13:35:01;5.78;;;4.40;;
22270;SDS011;11304;53.520;10.104;2023-09-08T13:37:28;6.32;;;4.05;;
22270;SDS011;11304;53.520;10.104;2023-09-08T13:39:55;6.03;;;4.45;;
22270;SDS011;11304;53.520;10.104;2023-09-08T13:42:21;5.68;;;4.03;;
22270;SDS011;11304;53.520;10.104;2023-09-08T13:44:48;5.53;;;4.10;;
22270;SDS011;11304;53.520;10.104;2023-09-08T13:47:14;6.78;;;4.20;;
22270;SDS011;11304;53.520;10.104;2023-09-08T13:49:40;5.15;;;4.47;;
22270;SDS011;11304;53.520;10.104;2023-09-08T13:52:06;5.70;;;4.70;;
22270;SDS011;11304;53.520;10.104;2023-09-08T13:54:32;6.47;;;4.70;;
22270;SDS011;11304;53.520;10.104;2023-09-08T13:57:02;5.95;;;4.40;;
22270;SDS011;11304;53.520;10.104;2023-09-08T13:59:29;5.18;;;4.25;;
22270;SDS011;11304;53.520;10.104;2023-09-08T14:01:55;5.30;;;4.43;;
22270;SDS011;11304;53.520;10.104;2023-09-08T14:04:26;6.18;;;4.57;;
22270;SDS011;11304;53.520;10.104;2023-09-08T14:06:52;5.13;;;4.38;;
22270;SDS011;11304;53.520;10.104;2023-09-08T14:09:19;7.03;;;4.60;;
22270;SDS011;11304;53.520;10.104;2023-09-08T14:11:45;7.40;;;4.38;;
22270;SDS011;11304;53.520;10.104;2023-09-08T14:14:11;7.93;;;4.63;;
22270;SDS011;11304;53.520;10.104;2023-09-08T14:16:37;6.00;;;4.47;;
22270;SDS011;11304;53.520;10.104;2023-09-08T14:19:03;7.07;;;4.13;;
22270;SDS011;11304;53.520;10.104;2023-09-08T14:21:30;8.23;;;4.40;;
22270;SDS011;11304;53.520;10.104;2023-09-08T14:23:57;10.75;;;4.80;;
22270;SDS011;11304;53.520;10.104;2023-09-08T14:26:23;7.50;;;4.57;;
22270;SDS011;11304;53.520;10.104;2023-09-08T14:28:50;6.05;;;4.35;;
22270;SDS011;11304;53.520;10.104;2023-09-08T14:31:18;5.33;;;4.33;;
22270;SDS011;11304;53.520;10.104;2023-09-08T14:33:44;7.13;;;4.38;;
22270;SDS011;11304;53.520;10.104;2023-09-08T14:36:10;7.72;;;4.43;;
22270;SDS011;11304;53.520;10.104;2023-09-08T14:38:36;7.15;;;4.68;;
22270;SDS011;11304;53.520;10.104;2023-09-08T14:41:02;4.93;;;4.30;;
22270;SDS011;11304;53.520;10.104;2023-09-08T14:43:29;7.80;;;4.60;;